createdAt,value
2019-03-22T00:02:09.071Z,16.10
2019-03-22T00:04:38.976Z,13.43
2019-03-22T00:07:08.925Z,16.95
2019-03-22T00:09:38.843Z,19.12
2019-03-22T00:12:08.763Z,16.70
2019-03-22T00:14:38.705Z,19.50
2019-03-22T00:17:08.641Z,24.90
2019-03-22T00:19:38.572Z,18.23
2019-03-22T00:22:08.515Z,15.15
2019-03-22T00:24:38.504Z,17.60
2019-03-22T00:27:16.323Z,14.93
2019-03-22T00:29:40.088Z,17.00
2019-03-22T00:32:10.084Z,18.90
2019-03-22T00:34:40.016Z,15.98
2019-03-22T00:37:09.950Z,21.05
2019-03-22T00:39:40.292Z,15.15
2019-03-22T00:42:10.320Z,18.37
2019-03-22T00:44:40.317Z,12.90
2019-03-22T00:47:10.335Z,17.10
2019-03-22T00:49:40.268Z,16.30
2019-03-22T00:52:10.176Z,15.15
2019-03-22T00:54:40.043Z,19.80
2019-03-22T00:57:09.981Z,18.57
2019-03-22T00:59:39.892Z,17.45
2019-03-22T01:02:09.825Z,15.43
2019-03-22T01:04:39.736Z,13.58
2019-03-22T01:07:09.668Z,15.65
2019-03-22T01:09:39.603Z,14.58
2019-03-22T01:12:09.551Z,19.40
2019-03-22T01:14:39.503Z,15.35
2019-03-22T01:17:09.495Z,17.70
2019-03-22T01:19:39.512Z,18.50
2019-03-22T01:22:09.431Z,16.20
2019-03-22T01:24:39.341Z,15.93
2019-03-22T01:27:09.350Z,17.60
2019-03-22T01:29:39.880Z,16.65
2019-03-22T01:32:09.804Z,19.15
2019-03-22T01:34:39.753Z,15.10
2019-03-22T01:37:10.663Z,18.70
2019-03-22T01:39:40.571Z,17.12
2019-03-22T01:42:10.524Z,13.95
2019-03-22T01:44:40.440Z,15.35
2019-03-22T01:47:10.343Z,11.48
2019-03-22T01:49:40.292Z,15.10
2019-03-22T01:52:10.280Z,17.23
2019-03-22T01:54:40.196Z,20.43
2019-03-22T01:57:10.162Z,18.30
2019-03-22T01:59:40.100Z,18.32
2019-03-22T02:02:10.028Z,18.90
2019-03-22T02:04:40.032Z,15.98
2019-03-22T02:07:09.952Z,17.07
2019-03-22T02:09:39.988Z,18.00
2019-03-22T02:12:09.904Z,14.75
2019-03-22T02:14:40.976Z,14.98
2019-03-22T02:17:10.899Z,19.45
2019-03-22T02:19:40.818Z,18.98
2019-03-22T02:22:10.823Z,14.98
2019-03-22T02:24:40.889Z,18.40
2019-03-22T02:27:10.816Z,18.40
2019-03-22T02:29:40.745Z,19.27
2019-03-22T02:32:10.776Z,14.90
2019-03-22T02:34:40.718Z,14.75
2019-03-22T02:37:11.086Z,13.15
2019-03-22T02:39:41.294Z,16.48
2019-03-22T02:42:11.288Z,19.85
2019-03-22T02:44:41.685Z,15.95
2019-03-22T02:47:11.613Z,15.48
2019-03-22T02:49:41.654Z,19.17
2019-03-22T02:52:11.597Z,18.20
2019-03-22T02:54:41.537Z,16.87
2019-03-22T02:57:11.536Z,17.15
2019-03-22T02:59:41.580Z,17.85
2019-03-22T03:02:11.504Z,20.90
2019-03-22T03:04:41.500Z,16.60
2019-03-22T03:07:11.501Z,22.85
2019-03-22T03:09:41.489Z,18.57
2019-03-22T03:12:11.428Z,15.25
2019-03-22T03:14:41.400Z,19.57
2019-03-22T03:17:11.321Z,14.15
2019-03-22T03:19:41.318Z,19.82
2019-03-22T03:22:11.299Z,15.13
2019-03-22T03:24:42.222Z,16.45
2019-03-22T03:27:12.136Z,15.50
2019-03-22T03:29:42.064Z,19.70
2019-03-22T03:32:11.985Z,14.95
2019-03-22T03:34:42.037Z,17.77
2019-03-22T03:37:12.071Z,17.42
2019-03-22T03:39:42.101Z,18.37
2019-03-22T03:42:12.012Z,16.48
2019-03-22T03:44:42.401Z,16.97
2019-03-22T03:47:12.416Z,20.35
2019-03-22T03:49:42.426Z,21.62
2019-03-22T03:52:12.424Z,14.63
2019-03-22T03:54:42.480Z,23.75
2019-03-22T03:57:12.503Z,13.95
2019-03-22T03:59:42.545Z,19.23
2019-03-22T04:02:12.478Z,22.07
2019-03-22T04:04:42.320Z,20.02
2019-03-22T04:07:12.257Z,14.93
2019-03-22T04:09:42.252Z,16.87
2019-03-22T04:12:12.168Z,16.32
2019-03-22T04:14:42.202Z,19.67
2019-03-22T04:17:12.233Z,18.27
2019-03-22T04:19:42.256Z,19.30
2019-03-22T04:22:12.171Z,17.82
2019-03-22T04:24:42.104Z,22.42
2019-03-22T04:27:12.108Z,16.95
2019-03-22T04:29:42.127Z,16.90
2019-03-22T04:32:12.123Z,20.15
2019-03-22T04:34:42.109Z,20.25
2019-03-22T04:37:12.095Z,22.10
2019-03-22T04:39:42.084Z,16.60
2019-03-22T04:42:11.998Z,18.95
2019-03-22T04:44:42.014Z,17.40
2019-03-22T04:47:14.256Z,18.23
2019-03-22T04:49:45.308Z,14.80
2019-03-22T04:52:15.844Z,15.63
2019-03-22T04:54:48.209Z,17.95
2019-03-22T04:57:20.324Z,30.90
2019-03-22T04:59:51.040Z,23.12
2019-03-22T05:02:22.019Z,14.75
2019-03-22T05:04:53.231Z,19.85
2019-03-22T05:07:23.459Z,18.73
2019-03-22T05:09:53.908Z,19.73
2019-03-22T05:12:24.896Z,18.65
2019-03-22T05:14:56.108Z,18.35
2019-03-22T05:17:27.441Z,18.17
2019-03-22T05:19:59.403Z,18.27
2019-03-22T05:22:32.329Z,18.50
2019-03-22T05:25:03.812Z,17.10
2019-03-22T05:27:36.747Z,23.20
2019-03-22T05:30:09.812Z,18.60
2019-03-22T05:32:39.735Z,16.70
2019-03-22T05:35:09.680Z,15.40
2019-03-22T05:37:39.600Z,20.68
2019-03-22T05:40:09.521Z,15.68
2019-03-22T05:42:39.457Z,18.90
2019-03-22T05:45:09.372Z,18.35
2019-03-22T05:47:39.313Z,28.23
2019-03-22T05:50:09.228Z,19.05
2019-03-22T05:52:40.376Z,18.90
2019-03-22T05:55:10.308Z,19.65
2019-03-22T05:57:40.220Z,18.20
2019-03-22T06:00:10.256Z,17.10
2019-03-22T06:02:40.335Z,19.32
2019-03-22T06:05:10.296Z,21.30
2019-03-22T06:07:40.292Z,20.08
2019-03-22T06:10:10.507Z,21.40
2019-03-22T06:12:40.809Z,21.30
2019-03-22T06:15:12.237Z,19.40
2019-03-22T06:17:51.210Z,17.73
2019-03-22T06:20:16.080Z,14.45
2019-03-22T06:22:46.062Z,18.42
2019-03-22T06:25:16.001Z,17.77
2019-03-22T06:27:46.001Z,19.35
2019-03-22T06:30:17.286Z,27.35
2019-03-22T06:32:47.316Z,25.70
2019-03-22T06:35:17.311Z,17.30
2019-03-22T06:37:47.283Z,17.92
2019-03-22T06:40:17.568Z,17.02
2019-03-22T06:42:47.487Z,19.60
2019-03-22T06:45:17.404Z,19.73
2019-03-22T06:47:47.371Z,21.50
2019-03-22T06:50:17.284Z,22.82
2019-03-22T06:52:47.200Z,14.80
2019-03-22T06:55:17.135Z,20.15
2019-03-22T06:57:47.052Z,17.05
2019-03-22T07:00:17.011Z,16.65
2019-03-22T07:02:46.929Z,21.55
2019-03-22T07:05:16.843Z,23.05
2019-03-22T07:07:46.788Z,18.48
2019-03-22T07:10:16.724Z,19.82
2019-03-22T07:12:48.516Z,19.62
2019-03-22T07:15:18.479Z,19.90
2019-03-22T07:17:48.470Z,19.25
2019-03-22T07:20:18.483Z,18.05
2019-03-22T07:22:48.532Z,20.02
2019-03-22T07:25:18.753Z,23.07
2019-03-22T07:27:48.809Z,21.15
2019-03-22T07:30:19.422Z,22.30
2019-03-22T07:32:49.453Z,23.45
2019-03-22T07:35:19.371Z,24.23
2019-03-22T07:37:49.413Z,23.92
2019-03-22T07:40:19.408Z,21.82
2019-03-22T07:42:49.326Z,23.25
2019-03-22T07:45:19.273Z,18.87
2019-03-22T07:47:49.271Z,19.75
2019-03-22T07:50:19.223Z,22.65
2019-03-22T07:52:49.151Z,19.25
2019-03-22T07:55:18.998Z,23.90
2019-03-22T07:57:49.015Z,23.65
2019-03-22T08:00:30.269Z,25.30
2019-03-22T08:02:51.160Z,24.18
2019-03-22T08:05:21.107Z,23.90
2019-03-22T08:07:51.117Z,22.90
2019-03-22T08:10:21.076Z,27.42
2019-03-22T08:12:51.106Z,29.30
2019-03-22T08:15:31.987Z,26.57
2019-03-22T08:18:02.448Z,26.70
2019-03-22T08:20:43.573Z,26.97
2019-03-22T08:23:21.558Z,25.67
2019-03-22T08:25:51.707Z,24.67
2019-03-22T08:28:21.713Z,28.47
2019-03-22T08:30:51.691Z,28.07
2019-03-22T08:33:21.713Z,33.63
2019-03-22T08:35:51.662Z,27.30
2019-03-22T08:38:21.668Z,28.27
2019-03-22T08:40:51.692Z,30.33
2019-03-22T08:43:21.707Z,26.87
2019-03-22T08:45:51.684Z,33.23
2019-03-22T08:48:21.651Z,26.63
2019-03-22T08:50:51.644Z,29.93
2019-03-22T08:53:21.581Z,26.93
2019-03-22T08:55:51.697Z,33.00
2019-03-22T08:58:21.721Z,31.90
2019-03-22T09:00:57.504Z,27.40
2019-03-22T09:03:23.359Z,30.53
2019-03-22T09:05:53.289Z,26.40
2019-03-22T09:08:23.251Z,29.13
2019-03-22T09:10:53.252Z,34.57
2019-03-22T09:13:23.180Z,31.60
2019-03-22T09:15:53.109Z,33.70
2019-03-22T09:18:23.146Z,32.20
2019-03-22T09:20:53.158Z,39.00
2019-03-22T09:23:23.152Z,33.53
2019-03-22T09:25:53.168Z,36.37
2019-03-22T09:28:24.192Z,34.83
2019-03-22T09:30:54.344Z,37.13
2019-03-22T09:33:24.448Z,39.47
2019-03-22T09:35:54.459Z,40.47
2019-03-22T09:38:24.464Z,36.00
2019-03-22T09:40:54.502Z,39.70
2019-03-22T09:43:24.484Z,38.20
2019-03-22T09:45:54.458Z,45.10
2019-03-22T09:48:24.435Z,41.43
2019-03-22T09:50:54.468Z,37.47
2019-03-22T09:53:24.473Z,36.73
2019-03-22T09:55:54.427Z,38.07
2019-03-22T09:58:24.340Z,44.93
2019-03-22T10:00:54.335Z,27.73
2019-03-22T10:03:24.283Z,31.17
2019-03-22T10:05:54.228Z,30.67
2019-03-22T10:08:24.382Z,36.27
2019-03-22T10:10:56.493Z,27.57
2019-03-22T10:13:26.460Z,39.50
2019-03-22T10:15:56.431Z,33.67
2019-03-22T10:18:26.485Z,35.13
2019-03-22T10:20:56.550Z,33.50
2019-03-22T10:23:26.714Z,34.70
2019-03-22T10:25:56.731Z,33.80
2019-03-22T10:28:26.735Z,36.90
2019-03-22T10:30:56.737Z,29.93
2019-03-22T10:33:26.741Z,30.70
2019-03-22T10:35:56.757Z,34.40
2019-03-22T10:38:31.892Z,31.93
2019-03-22T10:40:58.391Z,35.13
2019-03-22T10:43:28.341Z,33.30
2019-03-22T10:45:58.332Z,29.27
2019-03-22T10:48:28.284Z,31.93
2019-03-22T10:50:58.217Z,32.13
2019-03-22T10:53:28.236Z,33.17
2019-03-22T10:56:16.931Z,34.27
2019-03-22T10:58:46.856Z,32.70
2019-03-22T11:01:16.784Z,31.90
2019-03-22T11:03:46.824Z,28.10
2019-03-22T11:06:25.811Z,31.20
2019-03-22T11:08:48.656Z,29.17
2019-03-22T11:11:18.568Z,26.60
2019-03-22T11:13:48.500Z,24.37
2019-03-22T11:16:18.430Z,25.20
2019-03-22T11:18:48.428Z,24.93
2019-03-22T11:21:18.389Z,24.00
2019-03-22T11:23:50.184Z,17.20
2019-03-22T11:26:20.363Z,20.03
2019-03-22T11:28:50.307Z,18.20
2019-03-22T11:31:28.151Z,19.27
2019-03-22T11:33:51.872Z,22.17
2019-03-22T11:36:21.898Z,20.23
2019-03-22T11:38:51.816Z,20.50
2019-03-22T11:41:21.809Z,22.23
2019-03-22T11:43:51.751Z,21.90
2019-03-22T11:46:21.671Z,24.07
2019-03-22T11:48:51.676Z,20.03
2019-03-22T11:51:21.628Z,19.80
2019-03-22T11:53:51.554Z,22.83
2019-03-22T11:56:21.672Z,23.80
2019-03-22T11:58:51.672Z,22.77
2019-03-22T12:01:22.678Z,24.80
2019-03-22T12:03:52.884Z,20.50
2019-03-22T12:06:22.893Z,21.30
2019-03-22T12:08:52.833Z,20.97
2019-03-22T12:11:22.760Z,24.80
2019-03-22T12:13:52.788Z,26.93
2019-03-22T12:16:22.744Z,25.23
2019-03-22T12:18:52.704Z,24.57
2019-03-22T12:21:22.664Z,24.97
2019-03-22T12:23:52.611Z,17.60
2019-03-22T12:26:22.603Z,22.93
2019-03-22T12:28:52.539Z,20.93
2019-03-22T12:31:22.463Z,22.57
2019-03-22T12:33:52.416Z,25.40
2019-03-22T12:36:22.346Z,27.60
2019-03-22T12:38:52.331Z,21.97
2019-03-22T12:41:22.295Z,22.83
2019-03-22T12:43:52.218Z,18.43
2019-03-22T12:46:22.210Z,21.60
2019-03-22T12:48:52.241Z,20.37
2019-03-22T12:51:22.232Z,20.73
2019-03-22T12:53:52.155Z,21.17
2019-03-22T12:56:22.112Z,17.33
2019-03-22T12:58:52.036Z,16.30
2019-03-22T13:01:21.957Z,17.13
2019-03-22T13:03:51.916Z,15.63
2019-03-22T13:06:21.840Z,21.80
2019-03-22T13:08:52.069Z,24.40
2019-03-22T13:11:22.016Z,20.33
2019-03-22T13:13:51.956Z,22.57
2019-03-22T13:16:21.880Z,23.97
2019-03-22T13:18:51.829Z,23.30
2019-03-22T13:21:21.884Z,22.93
2019-03-22T13:23:51.924Z,23.20
2019-03-22T13:26:21.848Z,19.30
2019-03-22T13:28:51.768Z,25.40
2019-03-22T13:31:21.708Z,22.00
2019-03-22T13:33:51.655Z,24.63
2019-03-22T13:36:21.599Z,27.73
2019-03-22T13:38:51.529Z,23.37
2019-03-22T13:41:21.521Z,25.27
2019-03-22T13:43:51.456Z,27.83
2019-03-22T13:46:21.484Z,23.40
2019-03-22T13:48:51.504Z,26.53
2019-03-22T13:51:21.416Z,27.03
2019-03-22T13:53:51.404Z,27.00
2019-03-22T13:56:21.357Z,23.63
2019-03-22T13:58:51.276Z,27.27
2019-03-22T14:01:21.199Z,24.40
2019-03-22T14:03:51.211Z,21.27
2019-03-22T14:06:21.206Z,21.70
2019-03-22T14:08:51.146Z,24.53
2019-03-22T14:11:21.088Z,21.30
2019-03-22T14:13:52.828Z,23.03
2019-03-22T14:16:22.781Z,21.10
2019-03-22T14:18:52.704Z,20.93
2019-03-22T14:21:22.624Z,22.60
2019-03-22T14:23:52.572Z,20.23
2019-03-22T14:26:22.566Z,22.77
2019-03-22T14:28:52.508Z,23.47
2019-03-22T14:31:22.536Z,22.63
2019-03-22T14:33:52.564Z,21.10
2019-03-22T14:36:22.535Z,23.40
2019-03-22T14:38:52.472Z,19.70
2019-03-22T14:41:22.434Z,27.17
2019-03-22T14:43:52.858Z,22.80
2019-03-22T14:46:22.781Z,23.13
2019-03-22T14:48:52.712Z,23.70
2019-03-22T14:51:22.660Z,25.60
2019-03-22T14:53:52.608Z,21.90
2019-03-22T14:56:22.636Z,21.00
2019-03-22T14:58:52.688Z,24.23
2019-03-22T15:01:22.610Z,26.80
2019-03-22T15:03:52.644Z,22.43
2019-03-22T15:06:22.696Z,25.50
2019-03-22T15:08:52.615Z,28.03
2019-03-22T15:11:22.548Z,27.23
2019-03-22T15:14:11.421Z,24.97
2019-03-22T15:17:09.453Z,29.20
2019-03-22T15:19:59.792Z,28.93
2019-03-22T15:22:55.796Z,23.67
2019-03-22T15:25:38.420Z,27.20
2019-03-22T15:28:25.640Z,24.83
2019-03-22T15:31:11.660Z,27.03
2019-03-22T15:33:50.747Z,26.00
2019-03-22T15:36:51.717Z,25.80
2019-03-22T15:39:52.634Z,25.80
2019-03-22T15:42:23.051Z,22.07
2019-03-22T15:44:53.608Z,28.20
2019-03-22T15:47:23.580Z,24.47
2019-03-22T15:49:53.540Z,23.23
2019-03-22T15:52:23.497Z,24.90
2019-03-22T15:54:53.725Z,28.53
2019-03-22T15:57:23.737Z,26.53
2019-03-22T15:59:53.663Z,24.73
2019-03-22T16:02:23.615Z,27.13
2019-03-22T16:04:53.536Z,25.90
2019-03-22T16:07:23.476Z,32.93
2019-03-22T16:09:53.964Z,26.10
2019-03-22T16:12:25.050Z,34.60
2019-03-22T16:14:54.975Z,23.87
2019-03-22T16:17:24.987Z,22.87
2019-03-22T16:20:18.400Z,28.80
2019-03-22T16:26:10.683Z,27.90
2019-03-22T16:28:40.677Z,29.53
2019-03-22T16:31:10.598Z,24.97
2019-03-22T16:33:40.528Z,22.60
2019-03-22T16:36:10.476Z,29.10
2019-03-22T16:38:40.776Z,26.90
2019-03-22T16:41:10.703Z,28.63
2019-03-22T16:43:40.708Z,24.23
2019-03-22T16:46:10.634Z,22.27
2019-03-22T16:48:40.573Z,28.00
2019-03-22T16:51:10.571Z,25.83
2019-03-22T16:53:40.640Z,20.70
2019-03-22T16:56:10.637Z,28.00
2019-03-22T16:58:40.633Z,24.23
2019-03-22T17:01:10.676Z,24.30
2019-03-22T17:03:40.704Z,25.70
2019-03-22T17:06:10.634Z,33.47
2019-03-22T17:08:40.632Z,30.03
2019-03-22T17:11:10.645Z,30.70
2019-03-22T17:13:40.590Z,31.00
2019-03-22T17:16:10.658Z,34.80
2019-03-22T17:18:40.534Z,29.00
2019-03-22T17:21:10.464Z,31.90
2019-03-22T17:23:40.611Z,31.00
2019-03-22T17:26:10.755Z,38.33
2019-03-22T17:28:40.796Z,30.33
2019-03-22T17:31:10.737Z,32.03
2019-03-22T17:33:40.732Z,167.50
2019-03-22T17:36:10.716Z,56.93
2019-03-22T17:38:40.727Z,34.43
2019-03-22T17:41:10.656Z,33.43
2019-03-22T17:43:40.753Z,28.43
2019-03-22T17:46:10.704Z,30.53
2019-03-22T17:48:40.641Z,27.63
2019-03-22T17:51:10.573Z,27.70
2019-03-22T17:53:40.524Z,27.13
2019-03-22T17:56:10.520Z,36.67
2019-03-22T17:58:40.455Z,28.93
2019-03-22T18:01:10.477Z,31.70
2019-03-22T18:03:40.836Z,41.00
2019-03-22T18:06:10.833Z,42.80
2019-03-22T18:08:40.720Z,36.73
2019-03-22T18:11:10.645Z,38.60
2019-03-22T18:13:40.576Z,33.73
2019-03-22T18:16:10.517Z,31.63
2019-03-22T18:18:40.510Z,29.30
2019-03-22T18:21:10.460Z,31.87
2019-03-22T18:23:40.380Z,33.20
2019-03-22T18:26:10.296Z,35.03
2019-03-22T18:28:40.251Z,36.80
2019-03-22T18:31:10.215Z,39.83
2019-03-22T18:33:40.194Z,34.53
2019-03-22T18:36:10.100Z,31.97
2019-03-22T18:38:40.052Z,35.43
2019-03-22T18:41:09.959Z,31.93
2019-03-22T18:43:39.902Z,32.07
2019-03-22T18:46:09.818Z,31.10
2019-03-22T18:48:39.804Z,43.90
2019-03-22T18:51:09.744Z,32.93
2019-03-22T18:53:39.668Z,37.60
2019-03-22T18:56:09.572Z,37.37
2019-03-22T18:58:39.646Z,36.40
2019-03-22T19:01:10.633Z,36.00
2019-03-22T19:03:40.573Z,37.43
2019-03-22T19:06:10.530Z,30.83
2019-03-22T19:08:40.500Z,33.60
2019-03-22T19:11:10.452Z,32.97
2019-03-22T19:13:40.396Z,35.17
2019-03-22T19:16:10.323Z,40.40
2019-03-22T19:18:40.269Z,35.37
2019-03-22T19:21:10.220Z,33.47
2019-03-22T19:23:40.317Z,36.50
2019-03-22T19:26:10.248Z,36.87
2019-03-22T19:28:40.264Z,38.97
2019-03-22T19:31:10.197Z,32.67
2019-03-22T19:33:40.143Z,39.43
2019-03-22T19:36:10.162Z,34.57
2019-03-22T19:38:40.576Z,32.27
2019-03-22T19:41:12.314Z,31.20
2019-03-22T19:46:26.787Z,36.47
2019-03-22T19:48:56.711Z,34.23
2019-03-22T19:51:26.635Z,30.17
2019-03-22T19:53:56.679Z,35.60
2019-03-22T19:56:27.879Z,36.27
2019-03-22T19:58:58.296Z,34.20
2019-03-22T20:01:28.228Z,32.93
2019-03-22T20:03:58.165Z,29.57
2019-03-22T20:06:28.196Z,36.73
2019-03-22T20:08:58.231Z,30.47
2019-03-22T20:11:28.338Z,32.70
2019-03-22T20:13:59.040Z,41.13
2019-03-22T20:16:28.971Z,34.47
2019-03-22T20:18:58.894Z,31.20
2019-03-22T20:21:28.824Z,31.90
2019-03-22T20:23:58.756Z,30.90
2019-03-22T20:26:28.768Z,30.43
2019-03-22T20:28:58.711Z,28.00
2019-03-22T20:31:28.631Z,34.43
2019-03-22T20:33:58.559Z,30.80
2019-03-22T20:36:28.499Z,29.20
2019-03-22T20:39:00.000Z,32.23
2019-03-22T20:41:29.916Z,28.57
2019-03-22T20:43:59.907Z,28.87
2019-03-22T20:46:30.009Z,32.80
2019-03-22T20:48:59.943Z,32.37
2019-03-22T20:51:29.927Z,32.33
2019-03-22T20:53:59.866Z,32.73
2019-03-22T20:56:29.970Z,31.67
2019-03-22T20:58:59.892Z,33.63
2019-03-22T21:01:29.831Z,37.67
2019-03-22T21:03:59.760Z,30.13
2019-03-22T21:06:29.734Z,29.57
2019-03-22T21:08:59.674Z,29.57
2019-03-22T21:11:31.124Z,33.43
2019-03-22T21:14:01.156Z,32.33
2019-03-22T21:16:32.911Z,30.93
2019-03-22T21:19:04.672Z,27.97
2019-03-22T21:21:36.703Z,29.90
2019-03-22T21:24:08.676Z,33.75
2019-03-22T21:26:37.981Z,32.27
2019-03-22T21:29:07.847Z,33.30
2019-03-22T21:31:37.805Z,33.13
2019-03-22T21:34:07.870Z,35.47
2019-03-22T21:36:38.000Z,32.50
2019-03-22T21:39:08.771Z,35.33
2019-03-22T21:41:38.735Z,34.08
2019-03-22T21:44:09.061Z,31.55
2019-03-22T21:46:39.100Z,39.53
2019-03-22T21:49:09.043Z,39.73
2019-03-22T21:51:39.005Z,32.85
2019-03-22T21:54:08.928Z,28.50
2019-03-22T21:56:38.932Z,33.88
2019-03-22T21:59:08.884Z,30.75
2019-03-22T22:01:38.884Z,29.72
2019-03-22T22:04:08.849Z,34.45
2019-03-22T22:06:38.780Z,32.98
2019-03-22T22:09:08.709Z,38.93
2019-03-22T22:11:38.671Z,45.48
2019-03-22T22:14:08.666Z,32.60
2019-03-22T22:16:39.740Z,27.95
2019-03-22T22:19:09.755Z,36.63
2019-03-22T22:21:40.793Z,35.85
2019-03-22T22:24:10.745Z,32.45
2019-03-22T22:26:40.781Z,32.13
2019-03-22T22:29:10.785Z,32.85
2019-03-22T22:31:40.735Z,35.65
2019-03-22T22:34:10.680Z,35.25
2019-03-22T22:36:40.640Z,34.23
2019-03-22T22:39:10.564Z,30.57
2019-03-22T22:41:40.487Z,40.33
2019-03-22T22:44:10.444Z,32.28
2019-03-22T22:46:42.248Z,36.65
2019-03-22T22:49:12.259Z,40.25
2019-03-22T22:51:42.288Z,36.42
2019-03-22T22:54:12.284Z,34.03
2019-03-22T22:56:42.312Z,30.82
2019-03-22T22:59:12.304Z,36.88
2019-03-22T23:01:42.244Z,29.25
2019-03-22T23:04:12.211Z,42.50
2019-03-22T23:06:42.137Z,33.00
2019-03-22T23:09:12.111Z,36.98
2019-03-22T23:11:42.078Z,35.73
2019-03-22T23:14:12.008Z,33.15
2019-03-22T23:16:41.932Z,32.93
2019-03-22T23:19:12.873Z,33.50
2019-03-22T23:21:42.888Z,38.85
2019-03-22T23:24:12.848Z,32.23
2019-03-22T23:26:42.744Z,40.63
2019-03-22T23:29:12.679Z,34.30
2019-03-22T23:31:42.592Z,34.58
2019-03-22T23:34:12.525Z,32.28
2019-03-22T23:36:42.451Z,34.83
2019-03-22T23:39:12.391Z,39.67
2019-03-22T23:41:43.312Z,35.90
2019-03-22T23:44:13.244Z,42.45
2019-03-22T23:46:43.164Z,32.30
2019-03-22T23:49:13.092Z,38.40
2019-03-22T23:51:43.129Z,36.85
2019-03-22T23:54:13.115Z,36.68
2019-03-22T23:56:43.033Z,32.85
2019-03-22T23:59:12.973Z,38.75
